sensor_id;sensor_type;location;lat;lon;timestamp;pressure;altitude;pressure_sealevel;temperature;humidity
22255;BME280;11296;42.684;23.322;2022-07-23T00:00:33;95459.41;;;23.12;100.00
22255;BME280;11296;42.684;23.322;2022-07-23T00:02:59;95451.97;;;22.92;100.00
22255;BME280;11296;42.684;23.322;2022-07-23T00:05:24;95475.63;;;23.02;100.00
22255;BME280;11296;42.684;23.322;2022-07-23T00:07:50;95441.53;;;22.90;100.00
22255;BME280;11296;42.684;23.322;2022-07-23T00:10:16;95453.19;;;22.83;100.00
22255;BME280;11296;42.684;23.322;2022-07-23T00:12:42;95477.00;;;22.88;100.00
22255;BME280;11296;42.684;23.322;2022-07-23T00:15:08;95491.50;;;22.96;100.00
22255;BME280;11296;42.684;23.322;2022-07-23T00:17:34;95448.59;;;22.57;100.00
22255;BME280;11296;42.684;23.322;2022-07-23T00:20:00;95449.00;;;22.61;100.00
22255;BME280;11296;42.684;23.322;2022-07-23T00:22:26;95449.25;;;22.50;100.00
22255;BME280;11296;42.684;23.322;2022-07-23T00:24:53;95455.13;;;22.54;100.00
22255;BME280;11296;42.684;23.322;2022-07-23T00:27:18;95468.75;;;22.60;100.00
22255;BME280;11296;42.684;23.322;2022-07-23T00:29:44;95448.78;;;22.39;100.00
22255;BME280;11296;42.684;23.322;2022-07-23T00:32:11;95501.50;;;22.65;100.00
22255;BME280;11296;42.684;23.322;2022-07-23T00:34:38;95504.06;;;22.63;100.00
22255;BME280;11296;42.684;23.322;2022-07-23T00:37:04;95464.84;;;22.35;100.00
22255;BME280;11296;42.684;23.322;2022-07-23T00:39:29;95481.16;;;22.40;100.00
22255;BME280;11296;42.684;23.322;2022-07-23T00:41:55;95472.13;;;22.32;100.00
22255;BME280;11296;42.684;23.322;2022-07-23T00:44:26;95453.47;;;22.10;100.00
22255;BME280;11296;42.684;23.322;2022-07-23T00:46:54;95443.84;;;22.17;100.00
22255;BME280;11296;42.684;23.322;2022-07-23T00:49:21;95454.50;;;22.20;100.00
22255;BME280;11296;42.684;23.322;2022-07-23T00:51:48;95470.28;;;22.27;100.00
22255;BME280;11296;42.684;23.322;2022-07-23T00:54:15;95454.09;;;22.16;100.00
22255;BME280;11296;42.684;23.322;2022-07-23T00:56:43;95479.41;;;22.30;100.00
22255;BME280;11296;42.684;23.322;2022-07-23T00:59:09;95454.09;;;22.16;100.00
22255;BME280;11296;42.684;23.322;2022-07-23T01:01:35;95473.03;;;22.14;100.00
22255;BME280;11296;42.684;23.322;2022-07-23T01:04:01;95457.34;;;21.94;100.00
22255;BME280;11296;42.684;23.322;2022-07-23T01:06:27;95448.69;;;21.90;100.00
22255;BME280;11296;42.684;23.322;2022-07-23T01:08:56;95475.44;;;21.97;100.00
22255;BME280;11296;42.684;23.322;2022-07-23T01:11:23;95461.53;;;21.95;100.00
22255;BME280;11296;42.684;23.322;2022-07-23T01:13:48;95458.19;;;21.76;100.00
22255;BME280;11296;42.684;23.322;2022-07-23T01:16:14;95481.44;;;21.95;100.00
22255;BME280;11296;42.684;23.322;2022-07-23T01:18:40;95455.78;;;21.85;99.77
22255;BME280;11296;42.684;23.322;2022-07-23T01:21:06;95449.56;;;21.72;99.20
22255;BME280;11296;42.684;23.322;2022-07-23T01:23:32;95450.38;;;21.80;98.84
22255;BME280;11296;42.684;23.322;2022-07-23T01:25:58;95452.22;;;21.64;100.00
22255;BME280;11296;42.684;23.322;2022-07-23T01:28:25;95473.78;;;21.81;100.00
22255;BME280;11296;42.684;23.322;2022-07-23T01:30:52;95465.66;;;21.75;100.00
22255;BME280;11296;42.684;23.322;2022-07-23T01:33:18;95454.22;;;21.64;100.00
22255;BME280;11296;42.684;23.322;2022-07-23T01:35:44;95448.63;;;21.69;100.00
22255;BME280;11296;42.684;23.322;2022-07-23T01:38:16;95444.53;;;21.63;100.00
22255;BME280;11296;42.684;23.322;2022-07-23T01:40:43;95442.31;;;21.61;100.00
22255;BME280;11296;42.684;23.322;2022-07-23T01:43:09;95438.00;;;21.66;100.00
22255;BME280;11296;42.684;23.322;2022-07-23T01:45:36;95473.56;;;21.92;100.00
22255;BME280;11296;42.684;23.322;2022-07-23T01:48:02;95461.25;;;21.72;100.00
22255;BME280;11296;42.684;23.322;2022-07-23T01:50:30;95442.31;;;21.61;100.00
22255;BME280;11296;42.684;23.322;2022-07-23T01:53:08;95449.16;;;21.68;100.00
22255;BME280;11296;42.684;23.322;2022-07-23T01:55:35;95483.03;;;21.91;100.00
22255;BME280;11296;42.684;23.322;2022-07-23T01:58:02;95469.03;;;21.81;100.00
22255;BME280;11296;42.684;23.322;2022-07-23T02:00:28;95444.75;;;21.65;100.00
22255;BME280;11296;42.684;23.322;2022-07-23T02:02:54;95493.06;;;21.75;100.00
22255;BME280;11296;42.684;23.322;2022-07-23T02:05:21;95469.72;;;21.48;100.00
22255;BME280;11296;42.684;23.322;2022-07-23T02:07:47;95455.56;;;21.23;100.00
22255;BME280;11296;42.684;23.322;2022-07-23T02:10:12;95454.06;;;21.35;100.00
22255;BME280;11296;42.684;23.322;2022-07-23T02:12:38;95448.81;;;21.24;100.00
22255;BME280;11296;42.684;23.322;2022-07-23T02:15:04;95442.09;;;21.12;100.00
22255;BME280;11296;42.684;23.322;2022-07-23T02:17:30;95472.47;;;21.35;100.00
22255;BME280;11296;42.684;23.322;2022-07-23T02:19:55;95472.06;;;21.31;100.00
22255;BME280;11296;42.684;23.322;2022-07-23T02:22:21;95464.38;;;21.29;100.00
22255;BME280;11296;42.684;23.322;2022-07-23T02:24:48;95439.53;;;21.01;100.00
22255;BME280;11296;42.684;23.322;2022-07-23T02:27:14;95494.47;;;21.42;100.00
22255;BME280;11296;42.684;23.322;2022-07-23T02:29:40;95500.78;;;21.37;100.00
22255;BME280;11296;42.684;23.322;2022-07-23T02:32:05;95457.34;;;21.08;100.00
22255;BME280;11296;42.684;23.322;2022-07-23T02:34:31;95486.91;;;21.35;100.00
22255;BME280;11296;42.684;23.322;2022-07-23T02:36:57;95488.88;;;21.35;100.00
22255;BME280;11296;42.684;23.322;2022-07-23T02:39:24;95468.91;;;21.27;100.00
22255;BME280;11296;42.684;23.322;2022-07-23T02:41:49;95458.28;;;21.10;100.00
22255;BME280;11296;42.684;23.322;2022-07-23T02:44:15;95479.84;;;21.14;100.00
22255;BME280;11296;42.684;23.322;2022-07-23T02:46:44;95457.81;;;20.80;100.00
22255;BME280;11296;42.684;23.322;2022-07-23T02:49:10;95444.66;;;20.65;100.00
22255;BME280;11296;42.684;23.322;2022-07-23T02:51:35;95490.59;;;20.67;100.00
22255;BME280;11296;42.684;23.322;2022-07-23T02:54:13;95443.53;;;20.29;100.00
22255;BME280;11296;42.684;23.322;2022-07-23T02:56:45;95468.47;;;20.39;100.00
22255;BME280;11296;42.684;23.322;2022-07-23T02:59:18;95447.88;;;20.19;100.00
22255;BME280;11296;42.684;23.322;2022-07-23T03:01:50;95489.19;;;20.47;100.00
22255;BME280;11296;42.684;23.322;2022-07-23T03:04:32;95491.84;;;20.21;100.00
22255;BME280;11296;42.684;23.322;2022-07-23T03:07:01;95481.19;;;20.18;100.00
22255;BME280;11296;42.684;23.322;2022-07-23T03:09:27;95447.25;;;19.94;100.00
22255;BME280;11296;42.684;23.322;2022-07-23T03:11:52;95494.56;;;20.21;100.00
22255;BME280;11296;42.684;23.322;2022-07-23T03:14:19;95463.53;;;19.87;100.00
22255;BME280;11296;42.684;23.322;2022-07-23T03:16:44;95506.25;;;20.22;100.00
22255;BME280;11296;42.684;23.322;2022-07-23T03:19:10;95515.69;;;20.21;100.00
22255;BME280;11296;42.684;23.322;2022-07-23T03:21:36;95535.06;;;20.36;100.00
22255;BME280;11296;42.684;23.322;2022-07-23T03:24:08;95505.03;;;20.17;100.00
22255;BME280;11296;42.684;23.322;2022-07-23T03:26:34;95490.94;;;19.94;100.00
22255;BME280;11296;42.684;23.322;2022-07-23T03:29:00;95479.16;;;19.86;100.00
22255;BME280;11296;42.684;23.322;2022-07-23T03:31:28;95517.06;;;20.09;100.00
22255;BME280;11296;42.684;23.322;2022-07-23T03:33:53;95503.00;;;20.05;100.00
22255;BME280;11296;42.684;23.322;2022-07-23T03:36:19;95524.84;;;20.05;100.00
22255;BME280;11296;42.684;23.322;2022-07-23T03:38:45;95490.53;;;19.90;100.00
22255;BME280;11296;42.684;23.322;2022-07-23T03:41:11;95509.25;;;20.00;100.00
22255;BME280;11296;42.684;23.322;2022-07-23T03:43:37;95533.59;;;20.16;100.00
22255;BME280;11296;42.684;23.322;2022-07-23T03:46:02;95531.03;;;20.24;100.00
22255;BME280;11296;42.684;23.322;2022-07-23T03:48:29;95521.66;;;20.19;100.00
22255;BME280;11296;42.684;23.322;2022-07-23T03:50:55;95508.28;;;20.16;100.00
22255;BME280;11296;42.684;23.322;2022-07-23T03:53:20;95487.09;;;20.03;100.00
22255;BME280;11296;42.684;23.322;2022-07-23T03:55:46;95515.44;;;20.37;100.00
22255;BME280;11296;42.684;23.322;2022-07-23T03:58:12;95552.72;;;20.66;100.00
22255;BME280;11296;42.684;23.322;2022-07-23T04:00:37;95539.34;;;20.50;100.00
22255;BME280;11296;42.684;23.322;2022-07-23T04:03:04;95528.44;;;20.63;100.00
22255;BME280;11296;42.684;23.322;2022-07-23T04:05:30;95531.31;;;20.71;100.00
22255;BME280;11296;42.684;23.322;2022-07-23T04:08:04;95519.00;;;20.64;100.00
22255;BME280;11296;42.684;23.322;2022-07-23T04:10:31;95530.16;;;20.66;100.00
22255;BME280;11296;42.684;23.322;2022-07-23T04:12:57;95537.09;;;20.80;100.00
22255;BME280;11296;42.684;23.322;2022-07-23T04:15:22;95561.66;;;20.99;100.00
22255;BME280;11296;42.684;23.322;2022-07-23T04:17:48;95562.88;;;21.03;100.00
22255;BME280;11296;42.684;23.322;2022-07-23T04:20:17;95524.53;;;20.90;100.00
22255;BME280;11296;42.684;23.322;2022-07-23T04:22:51;95509.38;;;20.89;100.00
22255;BME280;11296;42.684;23.322;2022-07-23T04:25:17;95523.38;;;20.99;100.00
22255;BME280;11296;42.684;23.322;2022-07-23T04:27:43;95507.72;;;20.99;100.00
22255;BME280;11296;42.684;23.322;2022-07-23T04:30:15;95535.50;;;21.03;100.00
22255;BME280;11296;42.684;23.322;2022-07-23T04:32:40;95568.16;;;21.27;100.00
22255;BME280;11296;42.684;23.322;2022-07-23T04:35:16;95527.19;;;21.09;100.00
22255;BME280;11296;42.684;23.322;2022-07-23T04:37:42;95529.50;;;21.18;100.00
22255;BME280;11296;42.684;23.322;2022-07-23T04:40:08;95529.44;;;21.23;100.00
22255;BME280;11296;42.684;23.322;2022-07-23T04:42:35;95528.69;;;21.36;100.00
22255;BME280;11296;42.684;23.322;2022-07-23T04:45:01;95517.63;;;21.28;100.00
22255;BME280;11296;42.684;23.322;2022-07-23T04:47:26;95521.44;;;21.38;100.00
22255;BME280;11296;42.684;23.322;2022-07-23T04:49:52;95530.25;;;21.45;100.00
22255;BME280;11296;42.684;23.322;2022-07-23T04:52:18;95544.78;;;21.39;100.00
22255;BME280;11296;42.684;23.322;2022-07-23T04:54:46;95569.94;;;21.77;100.00
22255;BME280;11296;42.684;23.322;2022-07-23T04:57:20;95514.25;;;21.49;100.00
22255;BME280;11296;42.684;23.322;2022-07-23T04:59:48;95531.94;;;21.74;100.00
22255;BME280;11296;42.684;23.322;2022-07-23T05:02:17;95536.53;;;21.79;100.00
22255;BME280;11296;42.684;23.322;2022-07-23T05:04:43;95538.16;;;21.87;100.00
22255;BME280;11296;42.684;23.322;2022-07-23T05:07:11;95527.59;;;21.91;100.00
22255;BME280;11296;42.684;23.322;2022-07-23T05:09:37;95532.09;;;22.02;100.00
22255;BME280;11296;42.684;23.322;2022-07-23T05:12:02;95535.66;;;22.10;100.00
22255;BME280;11296;42.684;23.322;2022-07-23T05:14:30;95560.03;;;22.34;100.00
22255;BME280;11296;42.684;23.322;2022-07-23T05:16:56;95562.56;;;22.32;100.00
22255;BME280;11296;42.684;23.322;2022-07-23T05:19:22;95551.22;;;22.28;100.00
22255;BME280;11296;42.684;23.322;2022-07-23T05:21:48;95553.44;;;22.50;100.00
22255;BME280;11296;42.684;23.322;2022-07-23T05:24:14;95567.13;;;22.63;100.00
22255;BME280;11296;42.684;23.322;2022-07-23T05:26:40;95558.72;;;22.61;100.00
22255;BME280;11296;42.684;23.322;2022-07-23T05:29:06;95561.78;;;22.78;100.00
22255;BME280;11296;42.684;23.322;2022-07-23T05:31:31;95565.88;;;22.85;100.00
22255;BME280;11296;42.684;23.322;2022-07-23T05:33:57;95536.44;;;22.85;100.00
22255;BME280;11296;42.684;23.322;2022-07-23T05:36:23;95570.34;;;22.96;100.00
22255;BME280;11296;42.684;23.322;2022-07-23T05:38:54;95553.22;;;23.03;100.00
22255;BME280;11296;42.684;23.322;2022-07-23T05:41:20;95572.00;;;23.19;100.00
22255;BME280;11296;42.684;23.322;2022-07-23T05:43:46;95562.50;;;23.20;100.00
22255;BME280;11296;42.684;23.322;2022-07-23T05:46:13;95570.34;;;23.37;100.00
22255;BME280;11296;42.684;23.322;2022-07-23T05:48:41;95542.13;;;23.16;100.00
22255;BME280;11296;42.684;23.322;2022-07-23T05:51:37;95541.53;;;23.30;100.00
22255;BME280;11296;42.684;23.322;2022-07-23T05:54:03;95544.41;;;23.53;100.00
22255;BME280;11296;42.684;23.322;2022-07-23T05:56:32;95542.66;;;23.63;99.87
22255;BME280;11296;42.684;23.322;2022-07-23T05:58:59;95575.03;;;23.93;98.54
22255;BME280;11296;42.684;23.322;2022-07-23T06:01:26;95565.88;;;23.90;95.93
22255;BME280;11296;42.684;23.322;2022-07-23T06:06:54;95560.84;;;24.09;95.31
22255;BME280;11296;42.684;23.322;2022-07-23T06:09:20;95559.59;;;24.18;98.56
22255;BME280;11296;42.684;23.322;2022-07-23T06:11:46;95518.63;;;23.99;99.36
22255;BME280;11296;42.684;23.322;2022-07-23T06:14:17;95537.78;;;24.20;95.38
22255;BME280;11296;42.684;23.322;2022-07-23T06:16:51;95512.06;;;24.02;97.98
22255;BME280;11296;42.684;23.322;2022-07-23T06:19:17;95508.19;;;23.98;95.89
22255;BME280;11296;42.684;23.322;2022-07-23T06:21:45;95505.06;;;24.01;96.03
22255;BME280;11296;42.684;23.322;2022-07-23T06:24:11;95531.22;;;24.30;96.94
22255;BME280;11296;42.684;23.322;2022-07-23T06:26:38;95515.09;;;24.35;94.58
22255;BME280;11296;42.684;23.322;2022-07-23T06:29:04;95527.63;;;24.58;92.13
22255;BME280;11296;42.684;23.322;2022-07-23T06:31:29;95563.59;;;24.75;91.50
22255;BME280;11296;42.684;23.322;2022-07-23T06:33:55;95511.28;;;24.53;91.12
22255;BME280;11296;42.684;23.322;2022-07-23T06:36:21;95512.56;;;24.74;89.42
22255;BME280;11296;42.684;23.322;2022-07-23T06:38:46;95509.88;;;24.82;86.49
22255;BME280;11296;42.684;23.322;2022-07-23T06:41:12;95489.84;;;24.74;86.39
22255;BME280;11296;42.684;23.322;2022-07-23T06:43:38;95507.28;;;24.99;85.71
22255;BME280;11296;42.684;23.322;2022-07-23T06:46:07;95539.41;;;25.27;87.44
22255;BME280;11296;42.684;23.322;2022-07-23T06:48:33;95539.19;;;25.32;84.96
22255;BME280;11296;42.684;23.322;2022-07-23T06:51:02;95517.16;;;25.25;86.12
22255;BME280;11296;42.684;23.322;2022-07-23T06:53:28;95509.81;;;25.27;85.26
22255;BME280;11296;42.684;23.322;2022-07-23T06:55:54;95540.28;;;25.59;85.64
22255;BME280;11296;42.684;23.322;2022-07-23T06:58:21;95526.09;;;25.70;84.23
22255;BME280;11296;42.684;23.322;2022-07-23T07:01:14;95525.72;;;25.74;78.75
22255;BME280;11296;42.684;23.322;2022-07-23T07:03:41;95535.94;;;25.89;78.31
22255;BME280;11296;42.684;23.322;2022-07-23T07:06:07;95530.03;;;26.00;78.25
22255;BME280;11296;42.684;23.322;2022-07-23T07:08:33;95496.66;;;25.81;73.65
22255;BME280;11296;42.684;23.322;2022-07-23T07:10:59;95518.63;;;26.03;73.13
22255;BME280;11296;42.684;23.322;2022-07-23T07:13:25;95496.53;;;26.11;73.80
22255;BME280;11296;42.684;23.322;2022-07-23T07:15:52;95484.06;;;26.02;75.66
22255;BME280;11296;42.684;23.322;2022-07-23T07:18:18;95515.53;;;26.39;72.56
22255;BME280;11296;42.684;23.322;2022-07-23T07:20:49;95484.66;;;26.33;71.07
22255;BME280;11296;42.684;23.322;2022-07-23T07:23:15;95501.97;;;26.58;72.24
22255;BME280;11296;42.684;23.322;2022-07-23T07:25:41;95486.25;;;26.68;72.67
22255;BME280;11296;42.684;23.322;2022-07-23T07:28:07;95515.28;;;27.01;71.38
22255;BME280;11296;42.684;23.322;2022-07-23T07:30:33;95476.69;;;26.94;71.62
22255;BME280;11296;42.684;23.322;2022-07-23T07:33:00;95482.66;;;27.07;73.05
22255;BME280;11296;42.684;23.322;2022-07-23T07:35:29;95463.31;;;27.07;70.18
22255;BME280;11296;42.684;23.322;2022-07-23T07:38:01;95468.75;;;27.15;64.92
22255;BME280;11296;42.684;23.322;2022-07-23T07:40:28;95494.19;;;27.31;66.27
22255;BME280;11296;42.684;23.322;2022-07-23T07:42:54;95472.72;;;27.04;65.33
22255;BME280;11296;42.684;23.322;2022-07-23T07:47:56;95502.63;;;27.40;63.63
22255;BME280;11296;42.684;23.322;2022-07-23T07:50:23;95474.69;;;27.29;62.27
22255;BME280;11296;42.684;23.322;2022-07-23T07:52:55;95465.81;;;27.38;61.89
22255;BME280;11296;42.684;23.322;2022-07-23T07:58:50;95492.56;;;27.96;59.39
22255;BME280;11296;42.684;23.322;2022-07-23T08:01:16;95475.97;;;27.96;58.72
22255;BME280;11296;42.684;23.322;2022-07-23T08:03:54;95456.72;;;27.88;59.30
22255;BME280;11296;42.684;23.322;2022-07-23T08:06:25;95481.50;;;28.13;60.13
22255;BME280;11296;42.684;23.322;2022-07-23T08:08:50;95459.69;;;28.17;56.41
22255;BME280;11296;42.684;23.322;2022-07-23T08:11:17;95493.13;;;28.38;56.02
22255;BME280;11296;42.684;23.322;2022-07-23T08:13:42;95469.28;;;28.43;55.32
22255;BME280;11296;42.684;23.322;2022-07-23T08:16:10;95463.88;;;28.45;55.45
22255;BME280;11296;42.684;23.322;2022-07-23T08:18:36;95484.59;;;28.71;56.39
22255;BME280;11296;42.684;23.322;2022-07-23T08:21:02;95456.13;;;28.60;55.70
22255;BME280;11296;42.684;23.322;2022-07-23T08:23:31;95472.94;;;28.82;54.89
22255;BME280;11296;42.684;23.322;2022-07-23T08:26:00;95457.03;;;28.73;54.40
22255;BME280;11296;42.684;23.322;2022-07-23T08:28:29;95462.47;;;28.90;54.27
22255;BME280;11296;42.684;23.322;2022-07-23T08:31:41;95480.31;;;29.15;54.00
22255;BME280;11296;42.684;23.322;2022-07-23T08:34:07;95459.47;;;29.14;55.20
22255;BME280;11296;42.684;23.322;2022-07-23T08:36:33;95477.59;;;29.44;53.16
22255;BME280;11296;42.684;23.322;2022-07-23T08:39:00;95466.09;;;29.38;52.55
22255;BME280;11296;42.684;23.322;2022-07-23T08:41:29;95486.34;;;29.50;53.38
22255;BME280;11296;42.684;23.322;2022-07-23T08:43:55;95484.16;;;29.68;53.69
22255;BME280;11296;42.684;23.322;2022-07-23T08:46:23;95459.22;;;29.58;52.01
22255;BME280;11296;42.684;23.322;2022-07-23T08:48:49;95474.84;;;29.92;52.30
22255;BME280;11296;42.684;23.322;2022-07-23T08:51:16;95464.94;;;29.89;51.20
22255;BME280;11296;42.684;23.322;2022-07-23T08:53:48;95470.16;;;30.14;51.42
22255;BME280;11296;42.684;23.322;2022-07-23T08:56:14;95429.28;;;29.95;50.52
22255;BME280;11296;42.684;23.322;2022-07-23T08:58:42;95459.75;;;30.24;50.51
22255;BME280;11296;42.684;23.322;2022-07-23T09:01:08;95443.66;;;30.32;49.05
22255;BME280;11296;42.684;23.322;2022-07-23T09:03:36;95484.28;;;30.77;47.72
22255;BME280;11296;42.684;23.322;2022-07-23T09:06:09;95434.69;;;30.52;49.24
22255;BME280;11296;42.684;23.322;2022-07-23T09:08:42;95478.78;;;30.98;49.77
22255;BME280;11296;42.684;23.322;2022-07-23T09:11:21;95428.13;;;30.78;47.90
22255;BME280;11296;42.684;23.322;2022-07-23T09:13:52;95461.72;;;31.13;47.66
22255;BME280;11296;42.684;23.322;2022-07-23T09:16:31;95428.56;;;31.06;45.50
22255;BME280;11296;42.684;23.322;2022-07-23T09:19:02;95447.44;;;31.28;46.90
22255;BME280;11296;42.684;23.322;2022-07-23T09:21:31;95435.19;;;31.22;45.05
22255;BME280;11296;42.684;23.322;2022-07-23T09:24:05;95430.75;;;31.28;44.71
22255;BME280;11296;42.684;23.322;2022-07-23T09:26:46;95422.69;;;31.32;43.97
22255;BME280;11296;42.684;23.322;2022-07-23T09:29:18;95473.09;;;31.81;41.70
22255;BME280;11296;42.684;23.322;2022-07-23T09:31:53;95445.72;;;31.77;41.11
22255;BME280;11296;42.684;23.322;2022-07-23T09:34:52;95467.50;;;32.02;41.71
22255;BME280;11296;42.684;23.322;2022-07-23T09:37:25;95419.00;;;31.72;40.69
22255;BME280;11296;42.684;23.322;2022-07-23T09:40:07;95460.03;;;32.28;40.54
22255;BME280;11296;42.684;23.322;2022-07-23T09:42:59;95425.91;;;32.15;38.92
22255;BME280;11296;42.684;23.322;2022-07-23T09:45:25;95408.84;;;32.09;38.24
22255;BME280;11296;42.684;23.322;2022-07-23T09:50:20;95428.59;;;32.37;35.72
22255;BME280;11296;42.684;23.322;2022-07-23T09:52:48;95402.94;;;32.38;36.80
22255;BME280;11296;42.684;23.322;2022-07-23T09:55:15;95395.94;;;32.60;36.40
22255;BME280;11296;42.684;23.322;2022-07-23T09:57:42;95430.28;;;33.23;36.71
22255;BME280;11296;42.684;23.322;2022-07-23T10:00:13;95391.25;;;34.10;33.02
22255;BME280;11296;42.684;23.322;2022-07-23T10:02:40;95393.81;;;35.85;31.99
22255;BME280;11296;42.684;23.322;2022-07-23T10:05:25;95415.53;;;37.93;28.10
22255;BME280;11296;42.684;23.322;2022-07-23T10:08:12;95409.69;;;39.62;24.91
22255;BME280;11296;42.684;23.322;2022-07-23T10:10:56;95401.78;;;40.73;23.02
22255;BME280;11296;42.684;23.322;2022-07-23T10:13:51;95411.81;;;41.03;22.53
22255;BME280;11296;42.684;23.322;2022-07-23T10:16:51;95393.38;;;41.54;21.71
22255;BME280;11296;42.684;23.322;2022-07-23T10:19:21;95391.19;;;41.80;20.72
22255;BME280;11296;42.684;23.322;2022-07-23T10:22:00;95406.38;;;42.92;20.03
22255;BME280;11296;42.684;23.322;2022-07-23T10:24:50;95418.50;;;43.76;20.22
22255;BME280;11296;42.684;23.322;2022-07-23T10:30:09;95411.03;;;44.44;18.43
22255;BME280;11296;42.684;23.322;2022-07-23T10:37:47;95413.25;;;44.50;16.97
22255;BME280;11296;42.684;23.322;2022-07-23T10:40:19;95383.84;;;42.98;16.95
22255;BME280;11296;42.684;23.322;2022-07-23T10:42:50;95381.75;;;42.64;17.63
22255;BME280;11296;42.684;23.322;2022-07-23T10:45:35;95365.19;;;42.85;17.54
22255;BME280;11296;42.684;23.322;2022-07-23T10:48:19;95373.81;;;44.74;16.62
22255;BME280;11296;42.684;23.322;2022-07-23T10:51:09;95391.66;;;45.52;16.59
22255;BME280;11296;42.684;23.322;2022-07-23T10:59:19;95355.88;;;43.58;15.85
22255;BME280;11296;42.684;23.322;2022-07-23T11:01:48;95360.31;;;43.27;15.47
22255;BME280;11296;42.684;23.322;2022-07-23T11:04:19;95357.97;;;44.03;15.88
22255;BME280;11296;42.684;23.322;2022-07-23T11:09:26;95325.56;;;44.76;14.11
22255;BME280;11296;42.684;23.322;2022-07-23T11:12:43;95364.94;;;45.88;13.31
22255;BME280;11296;42.684;23.322;2022-07-23T11:15:14;95344.44;;;43.97;13.37
22255;BME280;11296;42.684;23.322;2022-07-23T11:20:14;95311.03;;;46.02;13.26
22255;BME280;11296;42.684;23.322;2022-07-23T11:25:35;95322.63;;;45.34;13.25
22255;BME280;11296;42.684;23.322;2022-07-23T11:28:17;95308.81;;;45.92;14.14
22255;BME280;11296;42.684;23.322;2022-07-23T11:30:47;95336.22;;;45.47;12.97
22255;BME280;11296;42.684;23.322;2022-07-23T11:35:43;95320.44;;;46.33;12.81
22255;BME280;11296;42.684;23.322;2022-07-23T11:41:19;95306.41;;;47.80;11.60
22255;BME280;11296;42.684;23.322;2022-07-23T11:43:45;95295.53;;;48.38;11.90
22255;BME280;11296;42.684;23.322;2022-07-23T11:46:13;95320.66;;;47.05;10.97
22255;BME280;11296;42.684;23.322;2022-07-23T11:48:40;95295.84;;;44.81;11.58
22255;BME280;11296;42.684;23.322;2022-07-23T11:51:05;95288.34;;;46.20;11.86
22255;BME280;11296;42.684;23.322;2022-07-23T11:53:33;95279.75;;;46.04;11.50
22255;BME280;11296;42.684;23.322;2022-07-23T11:56:08;95272.13;;;45.28;11.41
22255;BME280;11296;42.684;23.322;2022-07-23T11:58:35;95281.75;;;45.83;12.01
22255;BME280;11296;42.684;23.322;2022-07-23T12:01:02;95287.09;;;46.61;11.21
22255;BME280;11296;42.684;23.322;2022-07-23T12:03:28;95288.59;;;47.33;10.97
22255;BME280;11296;42.684;23.322;2022-07-23T12:05:58;95278.66;;;47.48;11.21
22255;BME280;11296;42.684;23.322;2022-07-23T12:08:25;95287.75;;;48.27;11.09
22255;BME280;11296;42.684;23.322;2022-07-23T12:10:51;95274.09;;;49.49;10.18
22255;BME280;11296;42.684;23.322;2022-07-23T12:13:20;95271.81;;;48.72;9.86
22255;BME280;11296;42.684;23.322;2022-07-23T12:15:56;95253.63;;;47.87;9.99
22255;BME280;11296;42.684;23.322;2022-07-23T12:18:24;95290.03;;;47.34;10.49
22255;BME280;11296;42.684;23.322;2022-07-23T12:20:52;95270.81;;;47.18;10.31
22255;BME280;11296;42.684;23.322;2022-07-23T12:23:20;95277.22;;;47.35;10.57
22255;BME280;11296;42.684;23.322;2022-07-23T12:25:47;95254.41;;;47.03;10.21
22255;BME280;11296;42.684;23.322;2022-07-23T12:28:22;95261.53;;;46.87;11.01
22255;BME280;11296;42.684;23.322;2022-07-23T12:31:03;95268.66;;;47.51;11.46
22255;BME280;11296;42.684;23.322;2022-07-23T12:33:39;95263.00;;;47.41;10.62
22255;BME280;11296;42.684;23.322;2022-07-23T12:36:07;95238.03;;;47.39;10.86
22255;BME280;11296;42.684;23.322;2022-07-23T12:38:46;95260.13;;;47.41;10.72
22255;BME280;11296;42.684;23.322;2022-07-23T12:41:15;95258.66;;;46.97;11.51
22255;BME280;11296;42.684;23.322;2022-07-23T12:43:43;95256.56;;;47.18;10.78
22255;BME280;11296;42.684;23.322;2022-07-23T12:46:17;95246.41;;;48.10;10.38
22255;BME280;11296;42.684;23.322;2022-07-23T12:49:04;95233.00;;;47.64;10.38
22255;BME280;11296;42.684;23.322;2022-07-23T12:51:39;95267.19;;;47.94;9.80
22255;BME280;11296;42.684;23.322;2022-07-23T12:54:07;95232.34;;;47.09;10.48
22255;BME280;11296;42.684;23.322;2022-07-23T12:56:35;95233.00;;;47.64;10.49
22255;BME280;11296;42.684;23.322;2022-07-23T12:59:13;95242.84;;;46.22;10.70
22255;BME280;11296;42.684;23.322;2022-07-23T13:02:00;95228.56;;;46.12;10.48
22255;BME280;11296;42.684;23.322;2022-07-23T13:04:27;95251.56;;;47.23;10.25
22255;BME280;11296;42.684;23.322;2022-07-23T13:06:58;95240.19;;;47.21;10.81
22255;BME280;11296;42.684;23.322;2022-07-23T13:09:28;95259.38;;;47.79;10.57
22255;BME280;11296;42.684;23.322;2022-07-23T13:11:56;95222.22;;;48.01;9.98
22255;BME280;11296;42.684;23.322;2022-07-23T13:14:24;95231.13;;;48.72;9.10
22255;BME280;11296;42.684;23.322;2022-07-23T13:16:51;95237.31;;;47.01;9.40
22255;BME280;11296;42.684;23.322;2022-07-23T13:19:20;95260.84;;;47.29;10.02
22255;BME280;11296;42.684;23.322;2022-07-23T13:21:49;95225.91;;;47.31;9.92
22255;BME280;11296;42.684;23.322;2022-07-23T13:24:17;95217.38;;;46.92;9.69
22255;BME280;11296;42.684;23.322;2022-07-23T13:26:44;95230.91;;;47.22;10.18
22255;BME280;11296;42.684;23.322;2022-07-23T13:29:16;95232.88;;;48.04;10.14
22255;BME280;11296;42.684;23.322;2022-07-23T13:31:44;95193.72;;;47.89;9.46
22255;BME280;11296;42.684;23.322;2022-07-23T13:34:15;95227.75;;;48.35;9.13